Location:  
MeteoStar


Sort by weather type Sort by elevation Sort by visibility Sort from west to east north Sort from north to south Alphabetically Sort from strongest wind speed Sort from lowest to highest pressure Sort from highest to lowest dew point temperature Sort coolest temperatures to warmest Sort warm temperatures to coolest
 Metric

Current Observations for Saudi Arabia

Abha08:00ZMostly Cloudy66 52SSW 16 666856
Al Ahsa08:00ZNot Avail.79 411017.9NNE 16 79587
Al Baha08:00ZNot Avail.72 39SSW 8 725419
Al Qaysumah08:00ZNot Avail.77 4841019.8SSE 3 771174
Al-Jouf08:00ZClear77 3251017.3SSE 18 772260
Arar08:00ZNot Avail.75 5041018.6S 13 751820
Bisha08:00ZPartly Cloudy75 591017.3S 2 753828
Dhahran08:00ZNot Avail.81 451017.1N 13 7985
Gassim08:00ZPartly Cloudy77 551018.9SE 12 772125
Gizan08:00ZMostly Cloudy91 731015.1SSW 9 10019
Guriat08:00ZNot Avail.68 281017.0S 4 681669
Hafr Al-Batin08:00ZNot Avail.75 551019.5NNW 10 751354
Hail08:00ZNot Avail.73 431019.8SSE 4 733330
Jeddah King Abdul Aziz International Airport 08:00ZNot Avail.82 611014.1WNW 3 8349
Khamis Mushait08:00ZMostly Cloudy68 46WSW 14 686778
King Khaled International Airport08:00ZNot Avail.73 4141020.2E 8 732014
Madinah08:00ZNot Avail.77 461017.5E 8 772145
Makkah08:00ZNot Avail.86 591013.4S 2 851017
Najran08:00ZMostly Cloudy75 6141017.9E 6 753976
Rafha08:00ZNot Avail.75 3641018.8SSE 8 751473
Sharurah08:00ZPartly Cloudy81 6341016.3N 8 822362
Tabuk08:00ZNot Avail.72 2551016.1SSW 3 722552
Taif08:00ZNot Avail.73 3451018.1N 3 734849
Turaif08:00ZMostly Cloudy70 3751017.6S 16 702667
Wadi Al Dawasser Airport08:00ZPartly Cloudy75 6851017.9E 14 752047
Wejh08:00ZNot Avail.79 6651014.1W 8 7965
Yenbo08:00ZNot Avail.82 6151013.1S 10 8326

Atlantic
Tropical Watch